»·PEaware :: UAL511 KSFO-KLAX

UAL511 :: KSFO-KLAX

FLIGHT INFORMATION

Flight Status: Arrived
Operator:
United Airlines
More flights by this operator :: More flights under this callsign
Pilot: Dave M. (4986)
Aircraft: BOEING 737-200
(B732)
More flights by this aircraft type
Origin: KSFO San Francisco Intl
United States
Destination: KLAX Los Angeles Intl
United States
More flights between these airports :: More routes between these airports
Route: +OFFSH1 RZS SADDE8
File this flight plan on PilotEdge
Remarks:
Altitude:
(Current/Filed)
31,000ft
Speed:
(Current/Filed)
450kts
Departed: 23-Jan-18 01:38 PM
Arrived: 23-Jan-18 02:41 PM
Distance/Time
Traveled:
293nm/1:03
Distance/Time
To Go:
Arrived

Flight Plot

Page will automatically refresh every two minutes.

Flight plan parsing failed; only flown route is shown


Map Options




Map Legend


Flown Route
Filed Route
Departure Airport
Arrival Airport
Navaid (VOR, NDB)
Fix

Horizontal Profiles

Position Reports

Time Latitude Longitude Heading Altitude Ground
Speed
23-Jan-18 13:12 37.620204 -122.389379 27 21ft 0kts
23-Jan-18 13:13 37.620204 -122.389379 27 21ft 0kts
23-Jan-18 13:14 37.620204 -122.389379 27 21ft 0kts
23-Jan-18 13:15 37.620204 -122.389379 27 21ft 0kts
23-Jan-18 13:16 37.620204 -122.389379 27 21ft 0kts
23-Jan-18 13:17 37.620204 -122.389379 27 21ft 0kts
23-Jan-18 13:18 37.620204 -122.389379 27 21ft 0kts
23-Jan-18 13:19 37.620204 -122.389379 27 21ft 0kts
23-Jan-18 13:20 37.620204 -122.389379 27 21ft 0kts
23-Jan-18 13:21 37.620204 -122.389379 27 21ft 0kts
23-Jan-18 13:22 37.620204 -122.389379 27 21ft 0kts
23-Jan-18 13:23 37.620204 -122.389380 27 21ft 0kts
23-Jan-18 13:24 37.619802 -122.389635 26 21ft 1kts
23-Jan-18 13:25 37.619275 -122.389470 303 21ft 1kts
23-Jan-18 13:26 37.619235 -122.389375 297 21ft 0kts
23-Jan-18 13:27 37.619235 -122.389375 297 21ft 0kts
23-Jan-18 13:28 37.619532 -122.390117 297 21ft 8kts
23-Jan-18 13:29 37.620051 -122.391304 299 21ft 0kts
23-Jan-18 13:30 37.620051 -122.391304 299 21ft 0kts
23-Jan-18 13:31 37.620051 -122.391304 299 21ft 0kts
23-Jan-18 13:32 37.620053 -122.391310 299 21ft 0kts
23-Jan-18 13:33 37.621413 -122.391599 27 21ft 9kts
23-Jan-18 13:34 37.621875 -122.387308 118 21ft 17kts
23-Jan-18 13:35 37.619534 -122.381709 118 21ft 18kts
23-Jan-18 13:36 37.615055 -122.380670 208 21ft 20kts
23-Jan-18 13:37 37.614303 -122.381175 208 21ft 0kts
23-Jan-18 13:38 37.614004 -122.381374 207 21ft 5kts
23-Jan-18 13:39 37.611276 -122.383245 207 21ft 14kts
23-Jan-18 13:40 37.608832 -122.384665 126 21ft 0kts
23-Jan-18 13:41 37.608227 -122.382779 49 21ft 10kts
23-Jan-18 13:42 37.608418 -122.382603 31 21ft 0kts
23-Jan-18 13:43 37.608418 -122.382603 31 21ft 0kts
23-Jan-18 13:44 37.630538 -122.367839 30 495ft 182kts
23-Jan-18 13:45 37.683724 -122.370086 313 2642ft 213kts
23-Jan-18 13:46 37.662873 -122.427911 196 4843ft 234kts
23-Jan-18 13:47 37.607660 -122.474030 216 7350ft 247kts
23-Jan-18 13:48 37.547191 -122.526009 216 10190ft 278kts
23-Jan-18 13:49 37.483916 -122.581557 216 12883ft 284kts
23-Jan-18 13:50 37.414105 -122.643208 217 14564ft 314kts
23-Jan-18 13:51 37.328018 -122.664987 172 16239ft 346kts
23-Jan-18 13:52 37.232412 -122.641160 172 17941ft 357kts
23-Jan-18 13:53 37.133848 -122.615523 172 19784ft 368kts
23-Jan-18 13:54 37.031972 -122.588885 171 21516ft 384kts
23-Jan-18 13:55 36.925604 -122.561023 170 23080ft 397kts
23-Jan-18 13:56 36.816739 -122.532905 171 24496ft 407kts
23-Jan-18 13:57 36.704994 -122.504015 170 25739ft 416kts
23-Jan-18 13:58 36.591066 -122.474146 171 26838ft 424kts
23-Jan-18 13:59 36.474655 -122.444039 171 27798ft 432kts
23-Jan-18 14:00 36.365824 -122.384579 130 28620ft 450kts
23-Jan-18 14:01 36.290272 -122.261569 128 29370ft 457kts
23-Jan-18 14:02 36.211607 -122.136980 130 30044ft 462kts
23-Jan-18 14:03 36.130430 -122.013178 130 30660ft 467kts
23-Jan-18 14:04 36.047636 -121.888578 134 31195ft 471kts
23-Jan-18 14:05 35.959919 -121.768625 131 31294ft 471kts
23-Jan-18 14:06 35.875042 -121.647517 132 31294ft 471kts
23-Jan-18 14:07 35.788924 -121.526767 132 31289ft 472kts
23-Jan-18 14:08 35.702252 -121.405363 132 31287ft 472kts
23-Jan-18 14:09 35.617102 -121.283822 128 31282ft 473kts
23-Jan-18 14:10 35.533832 -121.159415 131 31279ft 473kts
23-Jan-18 14:11 35.449522 -121.038672 131 31263ft 474kts
23-Jan-18 14:12 35.363338 -120.916255 131 31244ft 476kts
23-Jan-18 14:13 35.278471 -120.795383 128 31239ft 478kts
23-Jan-18 14:14 35.178335 -120.695096 156 31242ft 475kts
23-Jan-18 14:15 35.076827 -120.593045 132 31225ft 480kts
23-Jan-18 14:16 34.989492 -120.470120 129 31228ft 481kts
23-Jan-18 14:17 34.905885 -120.347594 128 31226ft 481kts
23-Jan-18 14:18 34.826807 -120.233149 129 31135ft 479kts
23-Jan-18 14:19 34.743798 -120.111905 128 29342ft 457kts
23-Jan-18 14:20 34.664007 -119.995454 128 26920ft 440kts
23-Jan-18 14:21 34.587508 -119.884133 128 24604ft 422kts
23-Jan-18 14:22 34.518283 -119.775892 123 24035ft 402kts
23-Jan-18 14:23 34.455321 -119.663299 122 21391ft 399kts
23-Jan-18 14:24 34.395064 -119.553948 122 19205ft 384kts
23-Jan-18 14:25 34.336980 -119.448682 122 17058ft 371kts
23-Jan-18 14:26 34.280727 -119.347055 123 14971ft 359kts
23-Jan-18 14:27 34.226704 -119.249749 123 13014ft 347kts
23-Jan-18 14:28 34.171342 -119.150257 123 12983ft 358kts
23-Jan-18 14:29 34.117640 -119.051059 111 12966ft 350kts
23-Jan-18 14:30 34.089211 -118.940769 108 12998ft 342kts
23-Jan-18 14:31 34.059372 -118.836369 108 11959ft 317kts
23-Jan-18 14:32 34.035683 -118.740265 87 10876ft 291kts
23-Jan-18 14:33 34.028505 -118.645294 94 9331ft 287kts
23-Jan-18 14:34 34.022388 -118.550658 93 7962ft 281kts
23-Jan-18 14:35 34.012857 -118.461985 85 7421ft 244kts
23-Jan-18 14:36 34.020627 -118.384438 81 6634ft 230kts
23-Jan-18 14:37 34.028583 -118.312148 82 5004ft 212kts
23-Jan-18 14:38 34.036524 -118.241807 81 5016ft 214kts
23-Jan-18 14:39 34.041720 -118.170406 108 4962ft 213kts
23-Jan-18 14:40 33.990602 -118.143762 171 3212ft 199kts
23-Jan-18 14:41 33.938991 -118.144941 225 3007ft 194kts
23-Jan-18 14:42 33.949057 -118.201996 306 3034ft 187kts
23-Jan-18 14:43 33.967691 -118.253141 263 2558ft 150kts
23-Jan-18 14:44 33.963496 -118.292587 263 1982ft 154kts
23-Jan-18 14:45 33.957713 -118.348350 263 1001ft 129kts
23-Jan-18 14:46 33.953205 -118.391765 263 307ft 128kts
23-Jan-18 14:47 33.950683 -118.415811 263 112ft 14kts
23-Jan-18 14:48 33.949339 -118.419325 233 112ft 0kts
23-Jan-18 14:49 33.948142 -118.421226 232 112ft 12kts
23-Jan-18 14:50 33.946909 -118.421411 87 112ft 14kts
23-Jan-18 14:51 33.947550 -118.415327 83 112ft 17kts
23-Jan-18 14:52 33.946350 -118.412717 173 112ft 14kts
23-Jan-18 14:53 33.942116 -118.412088 172 112ft 16kts
23-Jan-18 14:54 33.938566 -118.410155 83 112ft 16kts
23-Jan-18 14:55 33.939158 -118.404344 83 112ft 18kts
23-Jan-18 14:56 33.941567 -118.400869 352 112ft 13kts
23-Jan-18 14:57 33.942016 -118.400198 83 112ft 0kts
23-Jan-18 14:58 33.942016 -118.400198 83 112ft 0kts

Navigation Log

Ident Type
Flight plan parsing failed, navigation log unavailable